Time;durP1;ratioP1;P1;durP2;ratioP2;P2;SDS_P1;SDS_P2;PMS_P1;PMS_P2;Temp;Humidity;BMP_temperature;BMP_pressure;BME280_temperature;BME280_humidity;BME280_pressure;Samples;Min_cycle;Max_cycle;Signal;HPM_P1;HPM_P2
2023/08/09 00:00:22;;;;;;;2.05;1.33;;;;;;;;;;5033798;28;20036;-65
2023/08/09 00:02:47;;;;;;;3.50;1.30;;;;;;;;;;5034026;28;20379;-65
2023/08/09 00:05:13;;;;;;;1.25;1.15;;;;;;;;;;5034136;28;20038;-65
2023/08/09 00:07:38;;;;;;;1.55;1.45;;;;;;;;;;5033265;28;20117;-65
2023/08/09 00:10:05;;;;;;;1.77;1.30;;;;;;;;;;5015483;28;20526;-65
2023/08/09 00:12:31;;;;;;;3.65;1.50;;;;;;;;;;5033273;28;20044;-63
2023/08/09 00:14:57;;;;;;;1.38;1.27;;;;;;;;;;5016067;28;20395;-64
2023/08/09 00:17:22;;;;;;;1.27;1.13;;;;;;;;;;5033189;28;20033;-64
2023/08/09 00:19:48;;;;;;;1.88;1.42;;;;;;;;;;5033222;28;20125;-64
2023/08/09 00:22:13;;;;;;;3.92;1.33;;;;;;;;;;5033406;28;20075;-64
2023/08/09 00:24:39;;;;;;;1.05;1.05;;;;;;;;;;5033115;28;20033;-64
2023/08/09 00:27:04;;;;;;;3.40;1.20;;;;;;;;;;5015958;28;20124;-64
2023/08/09 00:29:29;;;;;;;1.60;1.10;;;;;;;;;;4999242;28;20049;-64
2023/08/09 00:31:56;;;;;;;3.28;1.30;;;;;;;;;;5034247;28;20033;-64
2023/08/09 00:34:21;;;;;;;1.58;1.30;;;;;;;;;;5019015;28;20048;-64
2023/08/09 00:36:47;;;;;;;4.75;1.10;;;;;;;;;;5018948;28;20056;-64
2023/08/09 00:39:13;;;;;;;1.20;1.10;;;;;;;;;;5036675;28;20025;-64
2023/08/09 00:41:39;;;;;;;2.85;1.10;;;;;;;;;;5020757;28;20037;-64
2023/08/09 00:44:04;;;;;;;1.60;1.30;;;;;;;;;;5036769;28;20386;-64
2023/08/09 00:46:29;;;;;;;1.80;1.40;;;;;;;;;;5036781;28;20027;-63
2023/08/09 00:48:55;;;;;;;3.83;1.20;;;;;;;;;;5035688;28;20034;-63
2023/08/09 00:51:21;;;;;;;1.98;1.20;;;;;;;;;;5035089;28;20029;-63
2023/08/09 00:53:49;;;;;;;2.53;1.42;;;;;;;;;;5036427;28;20067;-63
2023/08/09 00:56:15;;;;;;;2.47;1.40;;;;;;;;;;5036347;28;20021;-63
2023/08/09 00:58:41;;;;;;;1.50;1.40;;;;;;;;;;5035080;28;20025;-63
2023/08/09 01:01:07;;;;;;;1.90;1.30;;;;;;;;;;5036838;28;20497;-59
2023/08/09 01:03:32;;;;;;;1.38;1.20;;;;;;;;;;5035835;28;20033;-59
2023/08/09 01:06:02;;;;;;;1.75;1.23;;;;;;;;;;5036563;28;20032;-59
2023/08/09 01:08:37;;;;;;;1.43;1.23;;;;;;;;;;5035647;28;20060;-61
2023/08/09 01:11:05;;;;;;;2.70;1.17;;;;;;;;;;5036157;28;20116;-61
2023/08/09 01:13:31;;;;;;;1.35;1.20;;;;;;;;;;5035318;28;20470;-61
2023/08/09 01:15:57;;;;;;;1.10;1.10;;;;;;;;;;5035983;28;20033;-61
2023/08/09 01:18:23;;;;;;;1.25;1.15;;;;;;;;;;5036698;28;20448;-61
2023/08/09 01:20:49;;;;;;;1.73;1.38;;;;;;;;;;5035021;28;20116;-61
2023/08/09 01:23:17;;;;;;;1.75;1.20;;;;;;;;;;5036183;28;20121;-61
2023/08/09 01:25:43;;;;;;;1.50;1.05;;;;;;;;;;5036039;28;20029;-61
2023/08/09 01:28:09;;;;;;;1.92;1.20;;;;;;;;;;5036443;28;20025;-64
2023/08/09 01:30:35;;;;;;;1.40;1.30;;;;;;;;;;5035147;28;20375;-65
2023/08/09 01:33:00;;;;;;;2.97;1.33;;;;;;;;;;5032351;28;20021;-64
2023/08/09 01:35:28;;;;;;;1.45;1.00;;;;;;;;;;5016348;28;20038;-65
2023/08/09 01:38:06;;;;;;;1.30;1.20;;;;;;;;;;5015281;28;20022;-65
2023/08/09 01:40:33;;;;;;;4.32;1.23;;;;;;;;;;5016454;28;20406;-65
2023/08/09 01:43:00;;;;;;;2.65;1.38;;;;;;;;;;5017428;28;20491;-64
2023/08/09 01:45:26;;;;;;;1.38;1.27;;;;;;;;;;5035545;28;20121;-65
2023/08/09 01:47:51;;;;;;;2.47;1.35;;;;;;;;;;5018561;28;20028;-65
2023/08/09 01:50:22;;;;;;;1.13;1.02;;;;;;;;;;5035462;28;20411;-65
2023/08/09 01:52:49;;;;;;;1.10;1.10;;;;;;;;;;5018015;28;20022;-65
2023/08/09 01:55:17;;;;;;;0.90;0.90;;;;;;;;;;5035290;28;20030;-65
2023/08/09 01:57:44;;;;;;;1.30;1.20;;;;;;;;;;5035440;28;20104;-65
2023/08/09 02:00:10;;;;;;;1.38;1.20;;;;;;;;;;5017810;28;20049;-65
2023/08/09 02:02:38;;;;;;;3.03;1.00;;;;;;;;;;5035628;28;20041;-61
2023/08/09 02:05:05;;;;;;;1.88;1.20;;;;;;;;;;5017892;28;20021;-61
2023/08/09 02:07:30;;;;;;;1.63;1.10;;;;;;;;;;5035769;28;20036;-60
2023/08/09 02:09:55;;;;;;;1.00;1.00;;;;;;;;;;5035237;28;20021;-60
2023/08/09 02:12:22;;;;;;;2.10;1.40;;;;;;;;;;5017740;28;20072;-60
2023/08/09 02:14:48;;;;;;;1.95;1.10;;;;;;;;;;5035413;28;20025;-60
2023/08/09 02:17:13;;;;;;;1.20;1.10;;;;;;;;;;5017087;28;20045;-60
2023/08/09 02:19:38;;;;;;;2.20;1.42;;;;;;;;;;5035191;28;20522;-61
2023/08/09 02:22:04;;;;;;;1.75;1.27;;;;;;;;;;5034984;28;20021;-60
2023/08/09 02:24:29;;;;;;;3.65;1.40;;;;;;;;;;5035289;28;20075;-60
2023/08/09 02:26:54;;;;;;;4.75;1.35;;;;;;;;;;5035431;28;20474;-59
2023/08/09 02:29:21;;;;;;;2.60;1.30;;;;;;;;;;5034885;28;20428;-59
2023/08/09 02:31:46;;;;;;;2.20;0.98;;;;;;;;;;5035073;28;20029;-61
2023/08/09 02:34:11;;;;;;;1.42;1.33;;;;;;;;;;5030203;28;20078;-61
2023/08/09 02:36:37;;;;;;;1.38;1.20;;;;;;;;;;5054471;28;20047;-61
2023/08/09 02:39:05;;;;;;;1.27;1.13;;;;;;;;;;5055157;28;20028;-61
2023/08/09 02:41:30;;;;;;;2.00;1.10;;;;;;;;;;5054320;28;20037;-61
2023/08/09 02:43:55;;;;;;;2.20;1.25;;;;;;;;;;5054565;28;20136;-61
2023/08/09 02:46:21;;;;;;;1.40;1.23;;;;;;;;;;5054490;28;20037;-60
2023/08/09 02:48:46;;;;;;;1.45;1.13;;;;;;;;;;5054601;28;20032;-59
2023/08/09 02:51:12;;;;;;;2.05;1.23;;;;;;;;;;5054051;28;20086;-60
2023/08/09 02:53:57;;;;;;;5.05;1.40;;;;;;;;;;5054443;28;20361;-60
2023/08/09 02:56:22;;;;;;;2.05;1.27;;;;;;;;;;5036402;28;20025;-60
2023/08/09 02:58:48;;;;;;;1.63;1.30;;;;;;;;;;5036861;28;20021;-60
2023/08/09 03:01:13;;;;;;;2.05;1.38;;;;;;;;;;5054056;28;20024;-61
2023/08/09 03:03:39;;;;;;;1.50;1.10;;;;;;;;;;5036611;28;20501;-61
2023/08/09 03:06:07;;;;;;;1.80;1.30;;;;;;;;;;5036544;28;20017;-61
2023/08/09 03:08:35;;;;;;;1.75;1.33;;;;;;;;;;5020054;28;20025;-63
2023/08/09 03:11:00;;;;;;;1.50;1.40;;;;;;;;;;5035855;28;20036;-63
2023/08/09 03:13:26;;;;;;;4.68;1.30;;;;;;;;;;5035985;28;20017;-64
2023/08/09 03:18:22;;;;;;;1.50;1.40;;;;;;;;;;5062180;23;20569;-61
2023/08/09 03:21:13;;;;;;;1.33;1.23;;;;;;;;;;4992221;23;1132397;-59
2023/08/09 03:24:10;;;;;;;2.15;1.20;;;;;;;;;;5031160;28;20116;-62
2023/08/09 03:26:36;;;;;;;2.50;1.40;;;;;;;;;;5016765;28;20356;-62
2023/08/09 03:29:04;;;;;;;3.83;1.50;;;;;;;;;;5032933;28;20021;-62
2023/08/09 03:31:30;;;;;;;1.77;1.40;;;;;;;;;;5034155;28;20049;-61
2023/08/09 03:34:02;;;;;;;4.60;1.50;;;;;;;;;;4999857;28;20033;-61
2023/08/09 03:36:27;;;;;;;1.35;1.30;;;;;;;;;;5015925;28;20128;-62
2023/08/09 03:38:58;;;;;;;2.25;1.40;;;;;;;;;;5014414;28;20522;-62
2023/08/09 03:41:25;;;;;;;5.97;1.65;;;;;;;;;;4996679;28;20489;-61
2023/08/09 03:43:51;;;;;;;1.52;1.27;;;;;;;;;;4996338;28;20375;-61
2023/08/09 03:46:16;;;;;;;2.22;1.35;;;;;;;;;;4996873;28;20115;-61
2023/08/09 03:48:42;;;;;;;2.75;1.27;;;;;;;;;;4996868;28;20476;-61
2023/08/09 03:51:07;;;;;;;1.38;1.27;;;;;;;;;;4995846;28;20488;-60
2023/08/09 03:53:33;;;;;;;1.45;1.35;;;;;;;;;;5056852;23;20519;-62
2023/08/09 03:55:58;;;;;;;2.47;1.50;;;;;;;;;;5060347;23;20103;-60
2023/08/09 03:58:24;;;;;;;2.47;1.30;;;;;;;;;;5040050;23;20049;-61
2023/08/09 04:00:49;;;;;;;1.70;1.60;;;;;;;;;;5033717;28;20034;-61
2023/08/09 04:03:17;;;;;;;1.73;1.35;;;;;;;;;;5017581;28;20116;-60
2023/08/09 04:05:42;;;;;;;4.65;1.58;;;;;;;;;;5053461;28;20094;-59
2023/08/09 04:08:07;;;;;;;1.55;1.45;;;;;;;;;;5056400;28;20017;-58
2023/08/09 04:10:35;;;;;;;1.60;1.40;;;;;;;;;;5023382;28;20033;-58
2023/08/09 04:13:00;;;;;;;2.58;1.50;;;;;;;;;;5057517;28;20430;-58
2023/08/09 04:15:26;;;;;;;3.63;3.22;;;;;;;;;;5037781;28;20074;-58
2023/08/09 04:17:53;;;;;;;5.32;4.30;;;;;;;;;;5020279;28;20029;-59
2023/08/09 04:20:19;;;;;;;5.60;3.72;;;;;;;;;;5037624;28;20451;-59
2023/08/09 04:22:44;;;;;;;5.57;3.13;;;;;;;;;;5018951;28;20026;-59
2023/08/09 04:25:12;;;;;;;3.25;2.97;;;;;;;;;;5037172;28;20043;-59
2023/08/09 04:27:41;;;;;;;1.80;1.70;;;;;;;;;;5019453;28;20124;-59
2023/08/09 04:30:09;;;;;;;3.30;1.80;;;;;;;;;;5019599;28;20061;-58
2023/08/09 04:32:35;;;;;;;1.88;1.50;;;;;;;;;;5037569;28;20017;-60
2023/08/09 04:35:00;;;;;;;3.40;1.48;;;;;;;;;;5017143;28;20093;-58
2023/08/09 04:37:27;;;;;;;2.03;1.80;;;;;;;;;;5035313;28;20075;-58
2023/08/09 04:39:53;;;;;;;5.00;1.95;;;;;;;;;;5018602;28;20030;-59
2023/08/09 04:42:19;;;;;;;2.00;1.65;;;;;;;;;;5036560;28;20056;-61
2023/08/09 04:44:45;;;;;;;2.63;1.90;;;;;;;;;;5055765;28;20057;-57
2023/08/09 04:47:12;;;;;;;2.67;1.70;;;;;;;;;;5038698;28;20033;-59
2023/08/09 04:49:37;;;;;;;5.97;1.90;;;;;;;;;;5056397;28;20095;-58
2023/08/09 04:52:04;;;;;;;2.25;1.80;;;;;;;;;;5053738;28;20108;-58
2023/08/09 04:54:29;;;;;;;2.08;1.88;;;;;;;;;;5036866;28;20396;-58
2023/08/09 04:56:55;;;;;;;2.25;2.00;;;;;;;;;;5036335;28;20173;-59
2023/08/09 04:59:20;;;;;;;3.53;2.17;;;;;;;;;;5036626;28;20033;-58
2023/08/09 05:01:45;;;;;;;4.53;1.92;;;;;;;;;;5035539;28;20048;-58
2023/08/09 05:04:11;;;;;;;2.78;1.95;;;;;;;;;;5036711;28;20116;-58
2023/08/09 05:06:36;;;;;;;2.53;2.13;;;;;;;;;;5041316;28;20394;-58
2023/08/09 05:09:03;;;;;;;3.30;2.30;;;;;;;;;;5056454;28;20453;-61
2023/08/09 05:11:28;;;;;;;5.35;2.83;;;;;;;;;;5037449;28;20095;-61
2023/08/09 05:13:53;;;;;;;4.57;2.28;;;;;;;;;;5038033;28;20032;-61
2023/08/09 05:16:24;;;;;;;7.53;2.80;;;;;;;;;;5056606;28;20036;-60
2023/08/09 05:18:49;;;;;;;;;;;;;;;;;;5056269;28;20045;-60
2023/08/09 05:21:15;;;;;;;3.33;2.03;;;;;;;;;;5056492;28;19994;-60
2023/08/09 05:23:40;;;;;;;6.47;2.60;;;;;;;;;;5056041;28;20279;-60
2023/08/09 05:26:05;;;;;;;4.75;2.72;;;;;;;;;;5037909;28;20418;-61
2023/08/09 05:28:31;;;;;;;4.78;2.70;;;;;;;;;;5055579;28;20041;-61
2023/08/09 05:30:56;;;;;;;4.30;2.72;;;;;;;;;;5055977;28;20025;-61
2023/08/09 05:33:21;;;;;;;4.45;2.75;;;;;;;;;;5055886;28;20025;-61
2023/08/09 05:35:47;;;;;;;4.57;2.67;;;;;;;;;;5038239;28;20382;-61
2023/08/09 05:38:12;;;;;;;4.43;2.85;;;;;;;;;;5055131;28;20035;-61
2023/08/09 05:40:38;;;;;;;3.67;2.67;;;;;;;;;;5055542;28;20392;-58
2023/08/09 05:43:04;;;;;;;8.32;2.90;;;;;;;;;;5021412;28;20120;-58
2023/08/09 05:45:29;;;;;;;5.53;2.70;;;;;;;;;;5056107;28;20092;-58
2023/08/09 05:47:55;;;;;;;4.78;2.40;;;;;;;;;;5038107;28;20496;-58
2023/08/09 05:50:20;;;;;;;5.80;2.35;;;;;;;;;;5037206;28;20037;-57
2023/08/09 05:52:46;;;;;;;4.55;2.45;;;;;;;;;;5048177;28;20013;-58
2023/08/09 05:55:11;;;;;;;7.10;2.45;;;;;;;;;;5027622;28;20059;-57
2023/08/09 05:57:37;;;;;;;3.15;2.38;;;;;;;;;;5034734;28;20060;-61
2023/08/09 06:00:04;;;;;;;2.13;1.83;;;;;;;;;;5033310;28;20399;-61
2023/08/09 06:02:34;;;;;;;3.05;2.10;;;;;;;;;;5033988;28;20419;-61
2023/08/09 06:05:00;;;;;;;3.28;2.20;;;;;;;;;;5033795;28;20030;-61
2023/08/09 06:07:25;;;;;;;5.25;2.58;;;;;;;;;;5033039;28;20133;-61
2023/08/09 06:09:51;;;;;;;5.90;2.92;;;;;;;;;;5033154;28;20110;-61
2023/08/09 06:12:16;;;;;;;4.50;2.45;;;;;;;;;;5032925;28;20025;-58
2023/08/09 06:14:41;;;;;;;4.93;2.42;;;;;;;;;;5032979;28;20360;-58
2023/08/09 06:17:07;;;;;;;4.40;2.47;;;;;;;;;;5032953;28;20471;-57
2023/08/09 06:19:33;;;;;;;4.75;2.42;;;;;;;;;;5015225;28;20029;-58
2023/08/09 06:21:59;;;;;;;4.22;2.20;;;;;;;;;;5015091;28;20112;-58
2023/08/09 06:24:24;;;;;;;3.70;2.40;;;;;;;;;;5032987;28;20116;-57
2023/08/09 06:26:50;;;;;;;3.00;2.35;;;;;;;;;;5032893;28;20033;-58
2023/08/09 06:29:16;;;;;;;2.63;1.70;;;;;;;;;;5032363;28;20490;-58
2023/08/09 06:31:41;;;;;;;2.45;1.60;;;;;;;;;;5033089;28;20048;-61
2023/08/09 06:34:08;;;;;;;2.15;1.58;;;;;;;;;;5033442;28;20026;-61
2023/08/09 06:36:33;;;;;;;2.95;1.60;;;;;;;;;;5034295;28;20032;-61
2023/08/09 06:38:59;;;;;;;1.40;1.33;;;;;;;;;;5034507;28;20534;-61
2023/08/09 06:41:24;;;;;;;1.73;1.48;;;;;;;;;;5016699;28;20034;-61
2023/08/09 06:43:50;;;;;;;2.70;1.70;;;;;;;;;;5034390;28;20040;-58
2023/08/09 06:46:16;;;;;;;1.98;1.40;;;;;;;;;;5034868;28;20033;-58
2023/08/09 06:48:41;;;;;;;2.03;1.40;;;;;;;;;;5034289;28;20172;-58
2023/08/09 06:51:06;;;;;;;1.60;1.15;;;;;;;;;;5016509;28;20029;-58
2023/08/09 06:53:32;;;;;;;1.30;1.17;;;;;;;;;;5034408;28;20481;-58
2023/08/09 06:55:57;;;;;;;1.35;1.25;;;;;;;;;;5034130;28;20040;-57
2023/08/09 06:58:24;;;;;;;2.97;1.10;;;;;;;;;;5033994;28;20483;-58
2023/08/09 07:00:49;;;;;;;1.38;1.27;;;;;;;;;;5016514;28;20037;-58
2023/08/09 07:03:15;;;;;;;2.83;1.52;;;;;;;;;;5034014;28;20134;-57
2023/08/09 07:05:40;;;;;;;1.40;1.30;;;;;;;;;;5016414;28;20037;-61
2023/08/09 07:08:06;;;;;;;1.40;1.20;;;;;;;;;;5016259;28;20021;-61
2023/08/09 07:10:31;;;;;;;1.92;1.27;;;;;;;;;;5033852;28;20068;-61
2023/08/09 07:12:56;;;;;;;1.35;1.25;;;;;;;;;;5034161;28;20033;-61
2023/08/09 07:15:22;;;;;;;1.45;1.35;;;;;;;;;;5016545;28;20021;-61
2023/08/09 07:17:47;;;;;;;1.48;1.23;;;;;;;;;;5033860;28;20026;-61
2023/08/09 07:20:14;;;;;;;2.75;1.27;;;;;;;;;;5016194;28;20415;-61
2023/08/09 07:22:40;;;;;;;1.85;1.30;;;;;;;;;;5033781;28;20029;-61
2023/08/09 07:25:07;;;;;;;2.00;1.35;;;;;;;;;;5033764;28;20387;-61
2023/08/09 07:27:33;;;;;;;1.45;1.30;;;;;;;;;;5034235;28;20022;-61
2023/08/09 07:29:59;;;;;;;1.25;1.15;;;;;;;;;;5033933;28;20376;-61
2023/08/09 07:32:25;;;;;;;0.95;0.95;;;;;;;;;;5033663;28;20037;-61
2023/08/09 07:34:50;;;;;;;1.50;1.38;;;;;;;;;;5033658;28;20033;-61
2023/08/09 07:37:15;;;;;;;1.30;1.20;;;;;;;;;;5033867;28;20041;-61
2023/08/09 07:39:41;;;;;;;1.17;1.08;;;;;;;;;;5015918;28;20029;-58
2023/08/09 07:42:06;;;;;;;2.00;1.05;;;;;;;;;;5035193;28;20463;-57
2023/08/09 07:44:31;;;;;;;1.50;1.40;;;;;;;;;;5037622;28;20037;-60
2023/08/09 07:46:58;;;;;;;1.20;1.13;;;;;;;;;;5037708;28;20067;-61
2023/08/09 07:49:23;;;;;;;1.10;1.08;;;;;;;;;;5038191;28;20029;-61
2023/08/09 07:51:48;;;;;;;1.65;0.98;;;;;;;;;;5037524;28;20538;-61
2023/08/09 07:54:14;;;;;;;1.50;1.27;;;;;;;;;;5037524;28;20498;-61
2023/08/09 07:56:39;;;;;;;4.43;1.27;;;;;;;;;;5083626;22;20056;-57
2023/08/09 07:59:23;;;;;;;1.10;1.00;;;;;;;;;;5089635;23;20060;31
2023/08/09 08:01:48;;;;;;;1.40;1.02;;;;;;;;;;5088809;23;20053;-57
2023/08/09 08:04:14;;;;;;;1.33;1.17;;;;;;;;;;5034692;28;20052;-57
2023/08/09 08:06:39;;;;;;;0.90;0.90;;;;;;;;;;5056820;28;20120;-57
2023/08/09 08:09:04;;;;;;;1.70;1.25;;;;;;;;;;5057222;28;20025;-57
2023/08/09 08:11:30;;;;;;;2.83;1.42;;;;;;;;;;5057386;28;20447;-57
2023/08/09 08:13:55;;;;;;;1.13;1.10;;;;;;;;;;5057689;28;20029;-57
2023/08/09 08:16:20;;;;;;;0.80;0.80;;;;;;;;;;5057088;28;20033;-57
2023/08/09 08:18:47;;;;;;;1.92;1.33;;;;;;;;;;5039255;28;20119;-57
2023/08/09 08:21:12;;;;;;;1.40;1.30;;;;;;;;;;5057548;28;20033;-57
2023/08/09 08:23:38;;;;;;;2.10;1.50;;;;;;;;;;5039071;28;20119;-57
2023/08/09 08:26:05;;;;;;;1.67;1.20;;;;;;;;;;5057133;28;20028;-58
2023/08/09 08:28:30;;;;;;;1.23;1.10;;;;;;;;;;5057118;28;20033;-57
2023/08/09 08:30:55;;;;;;;1.63;1.17;;;;;;;;;;5057027;28;20032;-57
2023/08/09 08:33:21;;;;;;;1.27;1.15;;;;;;;;;;5057091;28;20025;-57
2023/08/09 08:35:48;;;;;;;1.88;1.48;;;;;;;;;;5056725;28;20120;-57
2023/08/09 08:38:15;;;;;;;2.00;1.30;;;;;;;;;;5057223;28;20016;-57
2023/08/09 08:40:41;;;;;;;2.45;1.23;;;;;;;;;;5057187;28;20040;-57
2023/08/09 08:43:08;;;;;;;1.55;1.25;;;;;;;;;;5056880;28;20094;-57
2023/08/09 08:45:35;;;;;;;1.65;1.42;;;;;;;;;;5057106;28;20043;-57
2023/08/09 08:48:01;;;;;;;1.70;1.48;;;;;;;;;;5056487;28;20450;-58
2023/08/09 08:50:31;;;;;;;1.58;1.17;;;;;;;;;;5056378;28;20037;-58
2023/08/09 08:52:59;;;;;;;2.08;1.15;;;;;;;;;;5056014;28;20032;-57
2023/08/09 08:55:24;;;;;;;1.10;1.10;;;;;;;;;;5056349;28;20378;-58
2023/08/09 08:57:50;;;;;;;2.47;1.27;;;;;;;;;;5056624;28;20025;-58
2023/08/09 09:00:17;;;;;;;1.67;1.58;;;;;;;;;;5056574;28;20021;-57
2023/08/09 09:02:45;;;;;;;1.58;1.48;;;;;;;;;;5056063;28;20075;-57
2023/08/09 09:05:16;;;;;;;1.30;1.15;;;;;;;;;;5056458;28;20033;-57
2023/08/09 09:07:50;;;;;;;1.98;1.27;;;;;;;;;;5056140;28;20025;-57
2023/08/09 09:10:15;;;;;;;2.45;1.45;;;;;;;;;;5056314;28;20112;-58
2023/08/09 09:12:43;;;;;;;1.10;1.10;;;;;;;;;;5038170;28;20112;-57
2023/08/09 09:15:09;;;;;;;1.08;1.00;;;;;;;;;;5055986;28;20023;-57
2023/08/09 09:17:42;;;;;;;2.50;1.27;;;;;;;;;;5056233;28;20036;-57
2023/08/09 09:20:12;;;;;;;0.93;0.93;;;;;;;;;;5056185;28;20533;-57
2023/08/09 09:22:38;;;;;;;1.50;1.33;;;;;;;;;;5055845;28;20017;-57
2023/08/09 09:25:10;;;;;;;3.33;1.55;;;;;;;;;;5056362;28;20033;-57
2023/08/09 09:27:36;;;;;;;1.65;1.55;;;;;;;;;;5038283;28;20059;-57
2023/08/09 09:30:24;;;;;;;2.00;1.27;;;;;;;;;;5055931;28;20028;-57
2023/08/09 09:32:59;;;;;;;1.65;1.25;;;;;;;;;;5056226;28;20083;-57
2023/08/09 09:35:25;;;;;;;1.70;1.42;;;;;;;;;;5037792;28;20029;-58
2023/08/09 09:37:51;;;;;;;1.13;1.13;;;;;;;;;;5055553;28;20111;-57
2023/08/09 09:40:24;;;;;;;1.30;1.20;;;;;;;;;;5055790;28;20029;-57
2023/08/09 09:42:53;;;;;;;1.65;1.40;;;;;;;;;;5055748;28;20037;-57
2023/08/09 09:45:25;;;;;;;1.00;1.00;;;;;;;;;;5055444;28;20067;-57
2023/08/09 09:47:52;;;;;;;1.23;0.95;;;;;;;;;;5055670;28;20035;-57
2023/08/09 09:50:20;;;;;;;1.17;1.08;;;;;;;;;;5055531;28;20045;-57
2023/08/09 09:52:47;;;;;;;3.42;1.20;;;;;;;;;;5055566;28;20032;-57
2023/08/09 09:55:15;;;;;;;2.17;1.00;;;;;;;;;;5055481;28;20044;-57
2023/08/09 09:57:40;;;;;;;1.25;1.15;;;;;;;;;;5055181;28;20053;-57
2023/08/09 10:00:08;;;;;;;2.40;1.30;;;;;;;;;;5055190;28;20482;-57
2023/08/09 10:02:47;;;;;;;1.45;0.88;;;;;;;;;;5055026;28;20052;-57
2023/08/09 10:05:17;;;;;;;1.50;1.40;;;;;;;;;;5054516;28;20036;-57
2023/08/09 10:07:43;;;;;;;;;;;;;;;;;;5056026;28;20021;-58
2023/08/09 10:10:08;;;;;;;1.75;1.10;;;;;;;;;;5055181;28;19905;-57
2023/08/09 10:12:35;;;;;;;0.88;0.80;;;;;;;;;;5037040;28;20029;-57
2023/08/09 10:15:00;;;;;;;1.20;1.10;;;;;;;;;;5054871;28;20036;-57
2023/08/09 10:17:27;;;;;;;2.75;1.20;;;;;;;;;;5055150;28;20029;-57
2023/08/09 10:19:53;;;;;;;1.77;1.27;;;;;;;;;;5054745;28;20379;-57
2023/08/09 10:22:19;;;;;;;1.58;1.48;;;;;;;;;;5037252;28;20033;-57
2023/08/09 10:24:46;;;;;;;1.40;1.30;;;;;;;;;;5036830;28;20111;-57
2023/08/09 10:27:12;;;;;;;3.30;1.63;;;;;;;;;;5054945;28;20112;-57
2023/08/09 10:29:40;;;;;;;1.55;1.45;;;;;;;;;;5054628;28;20529;-57
2023/08/09 10:32:06;;;;;;;2.38;1.45;;;;;;;;;;5054721;28;20025;-57
2023/08/09 10:34:33;;;;;;;3.60;1.92;;;;;;;;;;5054469;28;20036;-57
2023/08/09 10:37:00;;;;;;;2.10;1.30;;;;;;;;;;5054997;28;20028;-57
2023/08/09 10:39:26;;;;;;;2.58;1.73;;;;;;;;;;5054662;28;20013;-57
2023/08/09 10:41:55;;;;;;;2.50;1.95;;;;;;;;;;5054359;28;20493;-57
2023/08/09 10:44:51;;;;;;;4.15;2.78;;;;;;;;;;5054905;28;20028;-57
2023/08/09 10:47:20;;;;;;;2.03;1.83;;;;;;;;;;5041815;28;20045;-57
2023/08/09 10:49:58;;;;;;;2.50;1.40;;;;;;;;;;5054218;28;20052;-57
2023/08/09 10:52:32;;;;;;;2.50;1.70;;;;;;;;;;5054618;28;20124;-57
2023/08/09 10:55:16;;;;;;;2.53;1.67;;;;;;;;;;5054420;28;20067;-57
2023/08/09 10:57:42;;;;;;;1.73;1.48;;;;;;;;;;5054071;28;20029;-57
2023/08/09 11:00:12;;;;;;;4.10;1.55;;;;;;;;;;5054042;28;20047;-57
2023/08/09 11:02:44;;;;;;;2.03;1.40;;;;;;;;;;5054233;28;20475;-57
2023/08/09 11:05:11;;;;;;;2.08;1.00;;;;;;;;;;5053939;28;20076;-57
2023/08/09 11:07:36;;;;;;;2.97;1.13;;;;;;;;;;5053930;28;20064;-58
2023/08/09 11:10:01;;;;;;;2.75;1.70;;;;;;;;;;5036047;28;20041;-57
2023/08/09 11:12:27;;;;;;;1.80;1.70;;;;;;;;;;5054037;28;20029;-57
2023/08/09 11:14:55;;;;;;;1.75;1.40;;;;;;;;;;5053823;28;20024;-57
2023/08/09 11:17:20;;;;;;;2.28;2.08;;;;;;;;;;5035838;28;20021;-57
2023/08/09 11:19:45;;;;;;;2.78;2.50;;;;;;;;;;5053740;28;20490;-57
2023/08/09 11:22:11;;;;;;;2.42;1.98;;;;;;;;;;5053728;28;20024;-57
2023/08/09 11:24:36;;;;;;;2.97;1.45;;;;;;;;;;5053969;28;20041;-57
2023/08/09 11:27:01;;;;;;;1.73;1.58;;;;;;;;;;5035882;28;20044;-57
2023/08/09 11:29:27;;;;;;;1.50;1.40;;;;;;;;;;5053931;28;20120;-57
2023/08/09 11:31:54;;;;;;;1.65;1.55;;;;;;;;;;5036103;28;20033;-57
2023/08/09 11:34:20;;;;;;;1.73;1.50;;;;;;;;;;5035728;28;20029;-57
2023/08/09 11:36:47;;;;;;;1.77;1.63;;;;;;;;;;5053800;28;20108;-57
2023/08/09 11:39:15;;;;;;;5.13;1.90;;;;;;;;;;5053549;28;20379;-57
2023/08/09 11:41:42;;;;;;;2.33;2.10;;;;;;;;;;5053483;28;20091;-57
2023/08/09 11:44:08;;;;;;;3.83;1.85;;;;;;;;;;5053438;28;20098;-57
2023/08/09 11:46:33;;;;;;;3.08;1.92;;;;;;;;;;5035580;28;20037;-57
2023/08/09 11:49:03;;;;;;;2.40;1.92;;;;;;;;;;5035669;28;20033;-57
2023/08/09 11:51:30;;;;;;;1.80;1.70;;;;;;;;;;5053691;28;20056;-57
2023/08/09 11:53:55;;;;;;;2.78;1.75;;;;;;;;;;5053423;28;20024;-57
2023/08/09 11:56:23;;;;;;;2.15;1.75;;;;;;;;;;5053351;28;20049;-57
2023/08/09 11:58:50;;;;;;;1.60;1.30;;;;;;;;;;5053407;28;20026;-57
2023/08/09 12:01:20;;;;;;;2.47;1.40;;;;;;;;;;5053329;28;20037;-57
2023/08/09 12:03:45;;;;;;;;;;;;;;;;;;5053611;28;20486;-57
2023/08/09 12:06:11;;;;;;;1.42;1.30;;;;;;;;;;5053317;28;19916;-57
2023/08/09 12:08:37;;;;;;;1.98;1.35;;;;;;;;;;5053563;28;20029;-57
2023/08/09 12:11:02;;;;;;;1.95;1.58;;;;;;;;;;5053154;28;20470;-57
2023/08/09 12:13:27;;;;;;;2.17;1.38;;;;;;;;;;5053455;28;20021;-57
2023/08/09 12:15:53;;;;;;;1.73;1.63;;;;;;;;;;5053460;28;20025;-57
2023/08/09 12:18:18;;;;;;;1.52;1.42;;;;;;;;;;5053155;28;20056;-57
2023/08/09 12:20:43;;;;;;;1.40;1.25;;;;;;;;;;5053178;28;20108;-57
2023/08/09 12:23:09;;;;;;;1.42;1.33;;;;;;;;;;5053113;28;20029;-57
2023/08/09 12:25:34;;;;;;;1.73;1.63;;;;;;;;;;5053402;28;20037;-57
2023/08/09 12:28:00;;;;;;;1.50;1.30;;;;;;;;;;5054116;28;20360;-57
2023/08/09 12:30:26;;;;;;;2.47;1.60;;;;;;;;;;5038884;28;20033;-57
2023/08/09 12:32:51;;;;;;;1.58;1.48;;;;;;;;;;5039222;28;20040;-57
2023/08/09 12:35:16;;;;;;;1.63;1.50;;;;;;;;;;5056754;28;20033;-57
2023/08/09 12:37:46;;;;;;;2.97;1.35;;;;;;;;;;5068702;23;20032;31
2023/08/09 12:40:19;;;;;;;1.77;1.67;;;;;;;;;;5008173;22;20046;-58
2023/08/09 12:42:45;;;;;;;1.75;1.63;;;;;;;;;;5057766;22;20033;-58
2023/08/09 12:45:11;;;;;;;2.22;1.33;;;;;;;;;;5035710;28;20116;-61
2023/08/09 12:47:36;;;;;;;1.33;1.23;;;;;;;;;;5036569;28;20033;-61
2023/08/09 12:50:02;;;;;;;2.28;1.23;;;;;;;;;;5036836;28;20038;-61
2023/08/09 12:52:27;;;;;;;1.63;1.33;;;;;;;;;;5036727;28;20030;-61
2023/08/09 12:54:53;;;;;;;2.08;1.35;;;;;;;;;;5036490;28;20022;-61
2023/08/09 12:57:18;;;;;;;1.25;1.08;;;;;;;;;;5036976;28;20029;-61
2023/08/09 12:59:45;;;;;;;1.58;1.48;;;;;;;;;;5036635;28;20067;-61
2023/08/09 13:02:10;;;;;;;1.50;1.25;;;;;;;;;;5036370;28;20022;-61
2023/08/09 13:04:35;;;;;;;1.35;1.25;;;;;;;;;;5036285;28;20038;-61
2023/08/09 13:07:01;;;;;;;1.70;1.60;;;;;;;;;;5036255;28;20059;-61
2023/08/09 13:09:27;;;;;;;1.08;0.98;;;;;;;;;;5036073;28;20034;-61
2023/08/09 13:12:03;;;;;;;2.38;1.33;;;;;;;;;;5036056;28;20029;-57
2023/08/09 13:14:28;;;;;;;1.38;1.10;;;;;;;;;;5037951;28;20140;-57
2023/08/09 13:16:54;;;;;;;1.33;1.23;;;;;;;;;;5016085;28;20101;-57
2023/08/09 13:19:19;;;;;;;1.30;1.20;;;;;;;;;;5015886;28;20025;-58
2023/08/09 13:21:45;;;;;;;1.77;1.20;;;;;;;;;;5015137;28;20042;-57
2023/08/09 13:24:10;;;;;;;1.40;1.30;;;;;;;;;;5015117;28;20029;-57
2023/08/09 13:26:36;;;;;;;1.58;1.27;;;;;;;;;;5015118;28;20108;-58
2023/08/09 13:29:01;;;;;;;1.38;1.30;;;;;;;;;;5015742;28;20040;-58
2023/08/09 13:31:27;;;;;;;1.30;1.20;;;;;;;;;;5015508;28;20399;-58
2023/08/09 13:33:52;;;;;;;1.50;1.35;;;;;;;;;;4997613;28;20065;-57
2023/08/09 13:36:18;;;;;;;1.40;1.30;;;;;;;;;;5021210;28;20017;-57
2023/08/09 13:38:44;;;;;;;1.60;1.40;;;;;;;;;;5038932;28;20025;-57
2023/08/09 13:41:10;;;;;;;1.23;1.13;;;;;;;;;;5000787;28;20037;-57
2023/08/09 13:43:35;;;;;;;1.20;1.10;;;;;;;;;;5038047;28;20124;-58
2023/08/09 13:46:01;;;;;;;1.10;0.95;;;;;;;;;;5042814;28;20026;-61
2023/08/09 13:48:26;;;;;;;1.02;1.00;;;;;;;;;;5050016;28;20459;-61
2023/08/09 13:50:51;;;;;;;2.35;1.40;;;;;;;;;;5039089;28;20025;-61
2023/08/09 13:53:17;;;;;;;1.10;1.10;;;;;;;;;;5034439;28;20104;-61
2023/08/09 13:55:43;;;;;;;1.42;1.33;;;;;;;;;;5035032;28;20120;-61
2023/08/09 13:58:09;;;;;;;1.33;1.23;;;;;;;;;;5017323;28;20025;-61
2023/08/09 14:00:34;;;;;;;1.10;1.00;;;;;;;;;;5034418;28;20044;-60
2023/08/09 14:02:59;;;;;;;1.85;1.15;;;;;;;;;;5034992;28;20022;-60
2023/08/09 14:05:25;;;;;;;1.40;1.30;;;;;;;;;;5034896;28;20421;-60
2023/08/09 14:07:50;;;;;;;1.30;1.20;;;;;;;;;;5034857;28;20025;-61
2023/08/09 14:10:15;;;;;;;1.17;1.13;;;;;;;;;;5016557;28;20088;-61
2023/08/09 14:12:41;;;;;;;2.00;1.90;;;;;;;;;;5034226;28;20413;-61
2023/08/09 14:15:07;;;;;;;1.45;1.35;;;;;;;;;;5034654;28;20025;-61
2023/08/09 14:17:32;;;;;;;2.60;1.20;;;;;;;;;;5034588;28;20424;-61
2023/08/09 14:19:59;;;;;;;1.27;1.17;;;;;;;;;;5034757;28;20014;-60
2023/08/09 14:22:25;;;;;;;1.30;1.20;;;;;;;;;;5016816;28;20033;-61
2023/08/09 14:24:50;;;;;;;0.90;0.90;;;;;;;;;;5034751;28;20477;-61
2023/08/09 14:27:17;;;;;;;1.30;1.20;;;;;;;;;;5034474;28;20030;-55
2023/08/09 14:29:43;;;;;;;1.05;1.05;;;;;;;;;;5034431;28;20038;-55
2023/08/09 14:32:11;;;;;;;1.17;1.08;;;;;;;;;;5034328;28;20026;-55
2023/08/09 14:34:37;;;;;;;1.20;1.10;;;;;;;;;;5034346;28;20060;-55
2023/08/09 14:37:03;;;;;;;1.50;0.90;;;;;;;;;;5034328;28;20061;-55
2023/08/09 14:39:28;;;;;;;1.10;1.00;;;;;;;;;;5034411;28;20029;-56
2023/08/09 14:41:54;;;;;;;1.33;1.23;;;;;;;;;;5034155;28;20037;-56